sensor_id;sensor_type;location;lat;lon;timestamp;P1;durP1;ratioP1;P2;durP2;ratioP2
64011;SDS011;50211;52.768;12.124;2023-02-04T00:01:22;1.50;;;0.70;;
64011;SDS011;50211;52.768;12.124;2023-02-04T00:03:48;1.10;;;0.97;;
64011;SDS011;50211;52.768;12.124;2023-02-04T00:06:13;4.03;;;1.10;;
64011;SDS011;50211;52.768;12.124;2023-02-04T00:08:39;4.90;;;1.10;;
64011;SDS011;50211;52.768;12.124;2023-02-04T00:11:04;1.57;;;1.00;;
64011;SDS011;50211;52.768;12.124;2023-02-04T00:13:30;3.67;;;1.00;;
64011;SDS011;50211;52.768;12.124;2023-02-04T00:15:56;1.20;;;0.87;;
64011;SDS011;50211;52.768;12.124;2023-02-04T00:18:21;1.23;;;0.80;;
64011;SDS011;50211;52.768;12.124;2023-02-04T00:20:47;1.00;;;0.90;;
64011;SDS011;50211;52.768;12.124;2023-02-04T00:23:12;1.33;;;0.90;;
64011;SDS011;50211;52.768;12.124;2023-02-04T00:25:38;0.90;;;0.83;;
64011;SDS011;50211;52.768;12.124;2023-02-04T00:28:03;2.30;;;1.13;;
64011;SDS011;50211;52.768;12.124;2023-02-04T00:30:30;3.70;;;1.10;;
64011;SDS011;50211;52.768;12.124;2023-02-04T00:32:55;4.70;;;1.20;;
64011;SDS011;50211;52.768;12.124;2023-02-04T00:35:24;3.77;;;0.93;;
64011;SDS011;50211;52.768;12.124;2023-02-04T00:37:49;1.13;;;1.03;;
64011;SDS011;50211;52.768;12.124;2023-02-04T00:40:15;3.40;;;1.13;;
64011;SDS011;50211;52.768;12.124;2023-02-04T00:42:41;1.77;;;1.03;;
64011;SDS011;50211;52.768;12.124;2023-02-04T00:45:07;1.37;;;1.07;;
64011;SDS011;50211;52.768;12.124;2023-02-04T00:47:33;2.50;;;1.10;;
64011;SDS011;50211;52.768;12.124;2023-02-04T00:49:58;2.83;;;1.17;;
64011;SDS011;50211;52.768;12.124;2023-02-04T00:52:24;1.37;;;0.87;;
64011;SDS011;50211;52.768;12.124;2023-02-04T00:54:50;1.53;;;1.03;;
64011;SDS011;50211;52.768;12.124;2023-02-04T00:57:15;2.30;;;1.23;;
64011;SDS011;50211;52.768;12.124;2023-02-04T00:59:41;2.47;;;0.90;;
64011;SDS011;50211;52.768;12.124;2023-02-04T01:02:06;2.40;;;1.03;;
64011;SDS011;50211;52.768;12.124;2023-02-04T01:04:31;4.17;;;1.10;;
64011;SDS011;50211;52.768;12.124;2023-02-04T01:06:57;2.13;;;1.00;;
64011;SDS011;50211;52.768;12.124;2023-02-04T01:09:23;3.57;;;1.30;;
64011;SDS011;50211;52.768;12.124;2023-02-04T01:11:48;1.93;;;1.00;;
64011;SDS011;50211;52.768;12.124;2023-02-04T01:14:14;4.07;;;1.23;;
64011;SDS011;50211;52.768;12.124;2023-02-04T01:16:39;1.63;;;1.10;;
64011;SDS011;50211;52.768;12.124;2023-02-04T01:19:05;1.63;;;0.80;;
64011;SDS011;50211;52.768;12.124;2023-02-04T01:21:30;1.13;;;0.73;;
64011;SDS011;50211;52.768;12.124;2023-02-04T01:23:56;5.83;;;1.20;;
64011;SDS011;50211;52.768;12.124;2023-02-04T01:26:21;3.40;;;1.60;;
64011;SDS011;50211;52.768;12.124;2023-02-04T01:28:47;0.70;;;0.70;;
64011;SDS011;50211;52.768;12.124;2023-02-04T01:31:13;1.13;;;0.60;;
64011;SDS011;50211;52.768;12.124;2023-02-04T01:33:39;2.23;;;0.70;;
64011;SDS011;50211;52.768;12.124;2023-02-04T01:36:04;1.23;;;0.90;;
64011;SDS011;50211;52.768;12.124;2023-02-04T01:38:30;2.80;;;1.00;;
64011;SDS011;50211;52.768;12.124;2023-02-04T01:40:55;1.33;;;0.70;;
64011;SDS011;50211;52.768;12.124;2023-02-04T01:43:22;0.50;;;0.50;;
64011;SDS011;50211;52.768;12.124;2023-02-04T01:45:48;1.07;;;0.70;;
64011;SDS011;50211;52.768;12.124;2023-02-04T01:48:15;2.63;;;0.63;;
64011;SDS011;50211;52.768;12.124;2023-02-04T01:50:51;2.93;;;0.80;;
64011;SDS011;50211;52.768;12.124;2023-02-04T01:53:21;3.67;;;0.60;;
64011;SDS011;50211;52.768;12.124;2023-02-04T01:55:50;1.47;;;1.00;;
64011;SDS011;50211;52.768;12.124;2023-02-04T01:58:16;1.57;;;0.70;;
64011;SDS011;50211;52.768;12.124;2023-02-04T02:00:42;0.70;;;0.50;;
64011;SDS011;50211;52.768;12.124;2023-02-04T02:03:08;1.47;;;0.50;;
64011;SDS011;50211;52.768;12.124;2023-02-04T02:05:38;5.00;;;0.87;;
64011;SDS011;50211;52.768;12.124;2023-02-04T02:08:07;0.57;;;0.47;;
64011;SDS011;50211;52.768;12.124;2023-02-04T02:10:34;2.83;;;0.60;;
64011;SDS011;50211;52.768;12.124;2023-02-04T02:13:02;0.50;;;0.50;;
64011;SDS011;50211;52.768;12.124;2023-02-04T02:15:29;1.30;;;0.57;;
64011;SDS011;50211;52.768;12.124;2023-02-04T02:17:54;0.60;;;0.57;;
64011;SDS011;50211;52.768;12.124;2023-02-04T02:20:23;3.63;;;0.60;;
64011;SDS011;50211;52.768;12.124;2023-02-04T02:22:52;1.70;;;0.57;;
64011;SDS011;50211;52.768;12.124;2023-02-04T02:25:22;0.40;;;0.40;;
64011;SDS011;50211;52.768;12.124;2023-02-04T02:27:47;2.97;;;0.33;;
64011;SDS011;50211;52.768;12.124;2023-02-04T02:30:13;1.23;;;0.57;;
64011;SDS011;50211;52.768;12.124;2023-02-04T02:32:41;1.53;;;0.50;;
64011;SDS011;50211;52.768;12.124;2023-02-04T02:35:08;1.27;;;0.50;;
64011;SDS011;50211;52.768;12.124;2023-02-04T02:37:34;1.37;;;0.50;;
64011;SDS011;50211;52.768;12.124;2023-02-04T02:40:00;0.40;;;0.33;;
64011;SDS011;50211;52.768;12.124;2023-02-04T02:42:26;1.30;;;0.80;;
64011;SDS011;50211;52.768;12.124;2023-02-04T02:44:52;2.00;;;0.73;;
64011;SDS011;50211;52.768;12.124;2023-02-04T02:47:19;0.70;;;0.50;;
64011;SDS011;50211;52.768;12.124;2023-02-04T02:49:46;1.27;;;0.50;;
64011;SDS011;50211;52.768;12.124;2023-02-04T02:52:13;4.00;;;0.57;;
64011;SDS011;50211;52.768;12.124;2023-02-04T02:54:39;0.60;;;0.60;;
64011;SDS011;50211;52.768;12.124;2023-02-04T02:57:13;0.83;;;0.50;;
64011;SDS011;50211;52.768;12.124;2023-02-04T02:59:45;4.50;;;0.67;;
64011;SDS011;50211;52.768;12.124;2023-02-04T03:02:13;1.53;;;0.70;;
64011;SDS011;50211;52.768;12.124;2023-02-04T03:04:43;1.47;;;0.70;;
64011;SDS011;50211;52.768;12.124;2023-02-04T03:07:11;0.70;;;0.70;;
64011;SDS011;50211;52.768;12.124;2023-02-04T03:09:38;0.63;;;0.50;;
64011;SDS011;50211;52.768;12.124;2023-02-04T03:12:04;1.97;;;1.03;;
64011;SDS011;50211;52.768;12.124;2023-02-04T03:14:30;3.40;;;0.90;;
64011;SDS011;50211;52.768;12.124;2023-02-04T03:16:56;0.97;;;0.67;;
64011;SDS011;50211;52.768;12.124;2023-02-04T03:19:23;1.23;;;0.70;;
64011;SDS011;50211;52.768;12.124;2023-02-04T03:21:50;0.40;;;0.40;;
64011;SDS011;50211;52.768;12.124;2023-02-04T03:24:15;1.83;;;0.63;;
64011;SDS011;50211;52.768;12.124;2023-02-04T03:26:42;0.70;;;0.60;;
64011;SDS011;50211;52.768;12.124;2023-02-04T03:29:10;1.90;;;0.80;;
64011;SDS011;50211;52.768;12.124;2023-02-04T03:31:36;0.50;;;0.50;;
64011;SDS011;50211;52.768;12.124;2023-02-04T03:34:02;0.30;;;0.30;;
64011;SDS011;50211;52.768;12.124;2023-02-04T03:36:28;1.03;;;0.57;;
64011;SDS011;50211;52.768;12.124;2023-02-04T03:38:53;3.07;;;0.63;;
64011;SDS011;50211;52.768;12.124;2023-02-04T03:41:19;1.13;;;0.70;;
64011;SDS011;50211;52.768;12.124;2023-02-04T03:43:45;0.53;;;0.40;;
64011;SDS011;50211;52.768;12.124;2023-02-04T03:46:10;2.67;;;0.70;;
64011;SDS011;50211;52.768;12.124;2023-02-04T03:48:35;0.87;;;0.50;;
64011;SDS011;50211;52.768;12.124;2023-02-04T03:51:01;0.70;;;0.60;;
64011;SDS011;50211;52.768;12.124;2023-02-04T03:53:26;0.80;;;0.40;;
64011;SDS011;50211;52.768;12.124;2023-02-04T03:55:52;3.87;;;1.00;;
64011;SDS011;50211;52.768;12.124;2023-02-04T03:58:18;1.47;;;0.33;;
64011;SDS011;50211;52.768;12.124;2023-02-04T04:00:43;1.03;;;0.53;;
64011;SDS011;50211;52.768;12.124;2023-02-04T04:03:09;0.57;;;0.50;;
64011;SDS011;50211;52.768;12.124;2023-02-04T04:05:34;1.33;;;0.43;;
64011;SDS011;50211;52.768;12.124;2023-02-04T04:08:00;2.27;;;0.70;;
64011;SDS011;50211;52.768;12.124;2023-02-04T04:10:26;0.83;;;0.60;;
64011;SDS011;50211;52.768;12.124;2023-02-04T04:12:53;0.70;;;0.60;;
64011;SDS011;50211;52.768;12.124;2023-02-04T04:15:18;0.97;;;0.80;;
64011;SDS011;50211;52.768;12.124;2023-02-04T04:17:44;4.27;;;0.60;;
64011;SDS011;50211;52.768;12.124;2023-02-04T04:20:09;0.80;;;0.70;;
64011;SDS011;50211;52.768;12.124;2023-02-04T04:22:36;1.87;;;0.53;;
64011;SDS011;50211;52.768;12.124;2023-02-04T04:25:01;1.03;;;0.50;;
64011;SDS011;50211;52.768;12.124;2023-02-04T04:27:27;0.50;;;0.50;;
64011;SDS011;50211;52.768;12.124;2023-02-04T04:29:54;2.37;;;0.90;;
64011;SDS011;50211;52.768;12.124;2023-02-04T04:32:20;0.73;;;0.70;;
64011;SDS011;50211;52.768;12.124;2023-02-04T04:34:45;1.13;;;0.60;;
64011;SDS011;50211;52.768;12.124;2023-02-04T04:37:11;2.83;;;0.80;;
64011;SDS011;50211;52.768;12.124;2023-02-04T04:39:36;1.67;;;0.73;;
64011;SDS011;50211;52.768;12.124;2023-02-04T04:42:02;1.53;;;0.60;;
64011;SDS011;50211;52.768;12.124;2023-02-04T04:44:27;1.60;;;0.43;;
64011;SDS011;50211;52.768;12.124;2023-02-04T04:46:53;2.53;;;0.63;;
64011;SDS011;50211;52.768;12.124;2023-02-04T04:49:18;3.67;;;0.70;;
64011;SDS011;50211;52.768;12.124;2023-02-04T04:51:44;1.63;;;0.67;;
64011;SDS011;50211;52.768;12.124;2023-02-04T04:54:09;0.93;;;0.70;;
64011;SDS011;50211;52.768;12.124;2023-02-04T04:56:35;2.87;;;0.70;;
64011;SDS011;50211;52.768;12.124;2023-02-04T04:59:00;2.33;;;0.33;;
64011;SDS011;50211;52.768;12.124;2023-02-04T05:01:27;1.80;;;0.63;;
64011;SDS011;50211;52.768;12.124;2023-02-04T05:03:52;2.33;;;0.40;;
64011;SDS011;50211;52.768;12.124;2023-02-04T05:06:18;5.13;;;0.43;;
64011;SDS011;50211;52.768;12.124;2023-02-04T05:08:49;4.43;;;0.70;;
64011;SDS011;50211;52.768;12.124;2023-02-04T05:11:15;0.63;;;0.47;;
64011;SDS011;50211;52.768;12.124;2023-02-04T05:13:41;3.70;;;0.50;;
64011;SDS011;50211;52.768;12.124;2023-02-04T05:16:06;0.70;;;0.50;;
64011;SDS011;50211;52.768;12.124;2023-02-04T05:18:32;0.20;;;0.20;;
64011;SDS011;50211;52.768;12.124;2023-02-04T05:20:57;2.47;;;0.60;;
64011;SDS011;50211;52.768;12.124;2023-02-04T05:23:22;1.47;;;0.70;;
64011;SDS011;50211;52.768;12.124;2023-02-04T05:25:48;0.77;;;0.50;;
64011;SDS011;50211;52.768;12.124;2023-02-04T05:28:13;1.07;;;0.50;;
64011;SDS011;50211;52.768;12.124;2023-02-04T05:30:39;0.70;;;0.50;;
64011;SDS011;50211;52.768;12.124;2023-02-04T05:33:04;1.80;;;0.60;;
64011;SDS011;50211;52.768;12.124;2023-02-04T05:35:30;2.33;;;0.80;;
64011;SDS011;50211;52.768;12.124;2023-02-04T05:37:55;4.73;;;0.63;;
64011;SDS011;50211;52.768;12.124;2023-02-04T05:40:21;0.50;;;0.50;;
64011;SDS011;50211;52.768;12.124;2023-02-04T05:42:46;1.43;;;0.50;;
64011;SDS011;50211;52.768;12.124;2023-02-04T05:45:13;0.50;;;0.47;;
64011;SDS011;50211;52.768;12.124;2023-02-04T05:47:40;1.23;;;0.70;;
64011;SDS011;50211;52.768;12.124;2023-02-04T05:50:06;0.53;;;0.50;;
64011;SDS011;50211;52.768;12.124;2023-02-04T05:52:32;27.40;;;11.67;;
64011;SDS011;50211;52.768;12.124;2023-02-04T05:54:58;20.97;;;12.67;;
64011;SDS011;50211;52.768;12.124;2023-02-04T05:57:23;9.90;;;6.73;;
64011;SDS011;50211;52.768;12.124;2023-02-04T05:59:49;9.17;;;6.00;;
64011;SDS011;50211;52.768;12.124;2023-02-04T06:02:14;12.20;;;5.60;;
64011;SDS011;50211;52.768;12.124;2023-02-04T06:04:40;5.17;;;3.90;;
64011;SDS011;50211;52.768;12.124;2023-02-04T06:07:05;3.40;;;1.90;;
64011;SDS011;50211;52.768;12.124;2023-02-04T06:09:31;0.50;;;0.50;;
64011;SDS011;50211;52.768;12.124;2023-02-04T06:11:56;6.40;;;0.80;;
64011;SDS011;50211;52.768;12.124;2023-02-04T06:14:22;1.00;;;0.90;;
64011;SDS011;50211;52.768;12.124;2023-02-04T06:16:47;3.03;;;0.50;;
64011;SDS011;50211;52.768;12.124;2023-02-04T06:19:13;4.33;;;0.93;;
64011;SDS011;50211;52.768;12.124;2023-02-04T06:21:38;0.67;;;0.63;;
64011;SDS011;50211;52.768;12.124;2023-02-04T06:24:04;0.93;;;0.80;;
64011;SDS011;50211;52.768;12.124;2023-02-04T06:26:29;3.47;;;1.43;;
64011;SDS011;50211;52.768;12.124;2023-02-04T06:28:55;1.00;;;0.60;;
64011;SDS011;50211;52.768;12.124;2023-02-04T06:31:20;2.70;;;0.90;;
64011;SDS011;50211;52.768;12.124;2023-02-04T06:33:46;0.50;;;0.43;;
64011;SDS011;50211;52.768;12.124;2023-02-04T06:36:11;1.30;;;0.90;;
64011;SDS011;50211;52.768;12.124;2023-02-04T06:38:37;1.10;;;0.93;;
64011;SDS011;50211;52.768;12.124;2023-02-04T06:41:02;0.57;;;0.57;;
64011;SDS011;50211;52.768;12.124;2023-02-04T06:43:28;2.70;;;0.50;;
64011;SDS011;50211;52.768;12.124;2023-02-04T06:45:53;2.83;;;0.90;;
64011;SDS011;50211;52.768;12.124;2023-02-04T06:48:19;1.90;;;0.50;;
64011;SDS011;50211;52.768;12.124;2023-02-04T06:50:45;1.37;;;0.50;;
64011;SDS011;50211;52.768;12.124;2023-02-04T06:53:10;2.17;;;1.37;;
64011;SDS011;50211;52.768;12.124;2023-02-04T06:55:36;1.20;;;1.10;;
64011;SDS011;50211;52.768;12.124;2023-02-04T06:58:01;1.07;;;0.70;;
64011;SDS011;50211;52.768;12.124;2023-02-04T07:00:27;1.27;;;0.90;;
64011;SDS011;50211;52.768;12.124;2023-02-04T07:02:54;0.60;;;0.60;;
64011;SDS011;50211;52.768;12.124;2023-02-04T07:05:21;0.67;;;0.67;;
64011;SDS011;50211;52.768;12.124;2023-02-04T07:07:47;1.27;;;1.17;;
64011;SDS011;50211;52.768;12.124;2023-02-04T07:10:12;1.40;;;0.93;;
64011;SDS011;50211;52.768;12.124;2023-02-04T07:12:38;3.63;;;0.90;;
64011;SDS011;50211;52.768;12.124;2023-02-04T07:15:04;7.17;;;1.23;;
64011;SDS011;50211;52.768;12.124;2023-02-04T07:17:29;0.77;;;0.63;;
64011;SDS011;50211;52.768;12.124;2023-02-04T07:19:55;1.60;;;1.43;;
64011;SDS011;50211;52.768;12.124;2023-02-04T07:22:20;0.80;;;0.80;;
64011;SDS011;50211;52.768;12.124;2023-02-04T07:24:46;3.90;;;0.90;;
64011;SDS011;50211;52.768;12.124;2023-02-04T07:27:11;2.47;;;0.73;;
64011;SDS011;50211;52.768;12.124;2023-02-04T07:29:36;2.90;;;1.00;;
64011;SDS011;50211;52.768;12.124;2023-02-04T07:32:02;1.90;;;0.80;;
64011;SDS011;50211;52.768;12.124;2023-02-04T07:34:27;2.20;;;0.90;;
64011;SDS011;50211;52.768;12.124;2023-02-04T07:36:53;4.20;;;2.50;;
64011;SDS011;50211;52.768;12.124;2023-02-04T07:39:18;9.77;;;6.43;;
64011;SDS011;50211;52.768;12.124;2023-02-04T07:41:44;12.07;;;5.80;;
64011;SDS011;50211;52.768;12.124;2023-02-04T07:44:09;6.07;;;2.93;;
64011;SDS011;50211;52.768;12.124;2023-02-04T07:46:35;3.37;;;2.10;;
64011;SDS011;50211;52.768;12.124;2023-02-04T07:49:00;3.97;;;3.10;;
64011;SDS011;50211;52.768;12.124;2023-02-04T07:51:26;5.20;;;3.07;;
64011;SDS011;50211;52.768;12.124;2023-02-04T07:53:51;3.13;;;1.87;;
64011;SDS011;50211;52.768;12.124;2023-02-04T07:56:17;4.63;;;2.20;;
64011;SDS011;50211;52.768;12.124;2023-02-04T07:58:42;2.30;;;1.10;;
64011;SDS011;50211;52.768;12.124;2023-02-04T08:01:08;3.77;;;1.10;;
64011;SDS011;50211;52.768;12.124;2023-02-04T08:03:33;1.83;;;0.90;;
64011;SDS011;50211;52.768;12.124;2023-02-04T08:05:59;0.50;;;0.50;;
64011;SDS011;50211;52.768;12.124;2023-02-04T08:08:24;1.20;;;1.00;;
64011;SDS011;50211;52.768;12.124;2023-02-04T08:10:50;1.87;;;1.50;;
64011;SDS011;50211;52.768;12.124;2023-02-04T08:13:15;4.97;;;3.20;;
64011;SDS011;50211;52.768;12.124;2023-02-04T08:15:41;2.87;;;0.70;;
64011;SDS011;50211;52.768;12.124;2023-02-04T08:18:06;0.60;;;0.60;;
64011;SDS011;50211;52.768;12.124;2023-02-04T08:20:32;0.97;;;0.50;;
64011;SDS011;50211;52.768;12.124;2023-02-04T08:22:57;0.77;;;0.60;;
64011;SDS011;50211;52.768;12.124;2023-02-04T08:25:23;1.00;;;0.40;;
64011;SDS011;50211;52.768;12.124;2023-02-04T08:27:49;6.03;;;2.27;;
64011;SDS011;50211;52.768;12.124;2023-02-04T08:30:14;7.73;;;3.80;;
64011;SDS011;50211;52.768;12.124;2023-02-04T08:32:40;2.23;;;1.60;;
64011;SDS011;50211;52.768;12.124;2023-02-04T08:35:06;1.87;;;1.00;;
64011;SDS011;50211;52.768;12.124;2023-02-04T08:37:32;0.53;;;0.53;;
64011;SDS011;50211;52.768;12.124;2023-02-04T08:39:58;3.27;;;0.90;;
64011;SDS011;50211;52.768;12.124;2023-02-04T08:42:23;1.63;;;0.80;;
64011;SDS011;50211;52.768;12.124;2023-02-04T08:44:49;2.30;;;0.60;;
64011;SDS011;50211;52.768;12.124;2023-02-04T08:47:14;3.90;;;0.93;;
64011;SDS011;50211;52.768;12.124;2023-02-04T08:49:40;1.90;;;0.70;;
64011;SDS011;50211;52.768;12.124;2023-02-04T08:52:06;1.00;;;0.67;;
64011;SDS011;50211;52.768;12.124;2023-02-04T08:54:32;0.73;;;0.73;;
64011;SDS011;50211;52.768;12.124;2023-02-04T08:56:58;4.07;;;0.90;;
64011;SDS011;50211;52.768;12.124;2023-02-04T08:59:23;5.83;;;0.87;;
64011;SDS011;50211;52.768;12.124;2023-02-04T09:01:50;5.47;;;1.03;;
64011;SDS011;50211;52.768;12.124;2023-02-04T09:04:16;2.37;;;0.77;;
64011;SDS011;50211;52.768;12.124;2023-02-04T09:06:42;3.50;;;0.97;;
64011;SDS011;50211;52.768;12.124;2023-02-04T09:09:08;4.80;;;1.33;;
64011;SDS011;50211;52.768;12.124;2023-02-04T09:11:34;3.90;;;2.13;;
64011;SDS011;50211;52.768;12.124;2023-02-04T09:13:59;6.13;;;3.90;;
64011;SDS011;50211;52.768;12.124;2023-02-04T09:16:25;5.20;;;2.67;;
64011;SDS011;50211;52.768;12.124;2023-02-04T09:18:50;6.60;;;3.43;;
64011;SDS011;50211;52.768;12.124;2023-02-04T09:21:16;19.40;;;8.27;;
64011;SDS011;50211;52.768;12.124;2023-02-04T09:23:41;36.43;;;11.73;;
64011;SDS011;50211;52.768;12.124;2023-02-04T09:26:08;9.30;;;5.23;;
64011;SDS011;50211;52.768;12.124;2023-02-04T09:28:33;3.43;;;1.63;;
64011;SDS011;50211;52.768;12.124;2023-02-04T09:30:59;3.20;;;2.43;;
64011;SDS011;50211;52.768;12.124;2023-02-04T09:33:24;7.47;;;3.80;;
64011;SDS011;50211;52.768;12.124;2023-02-04T09:35:50;3.20;;;1.10;;
64011;SDS011;50211;52.768;12.124;2023-02-04T09:38:15;1.50;;;0.90;;
64011;SDS011;50211;52.768;12.124;2023-02-04T09:40:42;0.87;;;0.80;;
64011;SDS011;50211;52.768;12.124;2023-02-04T09:43:12;1.20;;;0.80;;
64011;SDS011;50211;52.768;12.124;2023-02-04T09:45:44;1.60;;;0.60;;
64011;SDS011;50211;52.768;12.124;2023-02-04T09:48:10;1.43;;;0.70;;
64011;SDS011;50211;52.768;12.124;2023-02-04T09:50:37;1.80;;;0.60;;
64011;SDS011;50211;52.768;12.124;2023-02-04T09:53:04;2.60;;;0.70;;
64011;SDS011;50211;52.768;12.124;2023-02-04T09:55:31;1.90;;;0.67;;
64011;SDS011;50211;52.768;12.124;2023-02-04T09:57:59;4.43;;;1.30;;
64011;SDS011;50211;52.768;12.124;2023-02-04T10:00:26;0.40;;;0.40;;
64011;SDS011;50211;52.768;12.124;2023-02-04T10:02:53;3.27;;;0.97;;
64011;SDS011;50211;52.768;12.124;2023-02-04T10:05:23;4.40;;;1.40;;
64011;SDS011;50211;52.768;12.124;2023-02-04T10:07:55;4.63;;;2.77;;
64011;SDS011;50211;52.768;12.124;2023-02-04T10:10:22;1.70;;;1.30;;
64011;SDS011;50211;52.768;12.124;2023-02-04T10:12:51;2.63;;;1.83;;
64011;SDS011;50211;52.768;12.124;2023-02-04T10:15:19;2.37;;;1.43;;
64011;SDS011;50211;52.768;12.124;2023-02-04T10:17:46;0.77;;;0.63;;
64011;SDS011;50211;52.768;12.124;2023-02-04T10:20:29;1.60;;;1.40;;
64011;SDS011;50211;52.768;12.124;2023-02-04T10:22:54;2.35;;;1.23;;
64011;SDS011;50211;52.768;12.124;2023-02-04T10:25:21;1.20;;;0.75;;
64011;SDS011;50211;52.768;12.124;2023-02-04T10:27:55;3.00;;;2.13;;
64011;SDS011;50211;52.768;12.124;2023-02-04T10:30:23;1.30;;;0.50;;
64011;SDS011;50211;52.768;12.124;2023-02-04T10:32:50;1.08;;;0.73;;
64011;SDS011;50211;52.768;12.124;2023-02-04T10:35:18;3.55;;;2.20;;
64011;SDS011;50211;52.768;12.124;2023-02-04T10:37:44;8.23;;;2.13;;
64011;SDS011;50211;52.768;12.124;2023-02-04T10:40:30;6.80;;;5.53;;
64011;SDS011;50211;52.768;12.124;2023-02-04T10:42:57;3.20;;;0.83;;
64011;SDS011;50211;52.768;12.124;2023-02-04T10:45:26;6.23;;;1.53;;
64011;SDS011;50211;52.768;12.124;2023-02-04T10:47:54;3.10;;;2.40;;
64011;SDS011;50211;52.768;12.124;2023-02-04T10:50:21;1.37;;;0.70;;
64011;SDS011;50211;52.768;12.124;2023-02-04T10:52:52;3.03;;;0.53;;
64011;SDS011;50211;52.768;12.124;2023-02-04T10:55:40;3.57;;;0.97;;
64011;SDS011;50211;52.768;12.124;2023-02-04T10:58:08;2.67;;;0.80;;
64011;SDS011;50211;52.768;12.124;2023-02-04T11:00:37;1.30;;;0.90;;
64011;SDS011;50211;52.768;12.124;2023-02-04T11:03:10;2.20;;;1.40;;
64011;SDS011;50211;52.768;12.124;2023-02-04T11:05:48;1.60;;;1.50;;
64011;SDS011;50211;52.768;12.124;2023-02-04T11:08:17;2.80;;;1.23;;
64011;SDS011;50211;52.768;12.124;2023-02-04T11:10:44;3.87;;;2.10;;
64011;SDS011;50211;52.768;12.124;2023-02-04T11:13:18;2.47;;;1.50;;
64011;SDS011;50211;52.768;12.124;2023-02-04T11:18:55;1.30;;;0.47;;
64011;SDS011;50211;52.768;12.124;2023-02-04T11:21:25;4.53;;;1.90;;
64011;SDS011;50211;52.768;12.124;2023-02-04T11:39:26;2.20;;;1.83;;
64011;SDS011;50211;52.768;12.124;2023-02-04T11:41:57;2.67;;;2.20;;
64011;SDS011;50211;52.768;12.124;2023-02-04T11:44:23;3.57;;;3.13;;
64011;SDS011;50211;52.768;12.124;2023-02-04T11:46:50;1.60;;;1.50;;
64011;SDS011;50211;52.768;12.124;2023-02-04T11:49:19;2.27;;;1.40;;
64011;SDS011;50211;52.768;12.124;2023-02-04T11:51:46;5.43;;;2.63;;
64011;SDS011;50211;52.768;12.124;2023-02-04T11:54:12;2.83;;;1.23;;
64011;SDS011;50211;52.768;12.124;2023-02-04T11:56:40;1.53;;;0.77;;
64011;SDS011;50211;52.768;12.124;2023-02-04T11:59:07;1.20;;;0.40;;
64011;SDS011;50211;52.768;12.124;2023-02-04T12:01:35;4.97;;;2.20;;
64011;SDS011;50211;52.768;12.124;2023-02-04T12:04:01;46.67;;;16.00;;
64011;SDS011;50211;52.768;12.124;2023-02-04T12:06:31;25.93;;;9.20;;
64011;SDS011;50211;52.768;12.124;2023-02-04T12:11:54;2.37;;;2.03;;
64011;SDS011;50211;52.768;12.124;2023-02-04T12:14:26;1.48;;;0.75;;
64011;SDS011;50211;52.768;12.124;2023-02-04T12:16:56;4.70;;;2.03;;
64011;SDS011;50211;52.768;12.124;2023-02-04T12:19:21;4.07;;;1.60;;
64011;SDS011;50211;52.768;12.124;2023-02-04T12:21:47;1.37;;;1.03;;
64011;SDS011;50211;52.768;12.124;2023-02-04T12:24:13;1.63;;;0.70;;
64011;SDS011;50211;52.768;12.124;2023-02-04T12:26:38;1.73;;;1.10;;
64011;SDS011;50211;52.768;12.124;2023-02-04T12:29:04;1.27;;;0.87;;
64011;SDS011;50211;52.768;12.124;2023-02-04T12:31:29;0.90;;;0.67;;
64011;SDS011;50211;52.768;12.124;2023-02-04T12:33:55;1.45;;;0.85;;
64011;SDS011;50211;52.768;12.124;2023-02-04T12:36:21;1.95;;;1.45;;
64011;SDS011;50211;52.768;12.124;2023-02-04T12:38:47;1.30;;;1.20;;
64011;SDS011;50211;52.768;12.124;2023-02-04T12:41:12;21.27;;;9.32;;
64011;SDS011;50211;52.768;12.124;2023-02-04T12:43:38;6.60;;;4.35;;
64011;SDS011;50211;52.768;12.124;2023-02-04T12:46:03;15.55;;;10.68;;
64011;SDS011;50211;52.768;12.124;2023-02-04T12:48:29;10.38;;;6.47;;
64011;SDS011;50211;52.768;12.124;2023-02-04T12:50:55;8.38;;;6.80;;
64011;SDS011;50211;52.768;12.124;2023-02-04T12:53:20;6.50;;;5.63;;
64011;SDS011;50211;52.768;12.124;2023-02-04T12:55:46;4.85;;;2.72;;
64011;SDS011;50211;52.768;12.124;2023-02-04T12:58:12;1.33;;;0.85;;
64011;SDS011;50211;52.768;12.124;2023-02-04T13:00:38;1.40;;;1.20;;
64011;SDS011;50211;52.768;12.124;2023-02-04T13:03:03;7.50;;;6.18;;
64011;SDS011;50211;52.768;12.124;2023-02-04T13:05:29;2.50;;;1.95;;
64011;SDS011;50211;52.768;12.124;2023-02-04T13:07:55;4.00;;;1.77;;
64011;SDS011;50211;52.768;12.124;2023-02-04T13:10:22;1.60;;;1.50;;
64011;SDS011;50211;52.768;12.124;2023-02-04T13:12:48;2.30;;;1.08;;
64011;SDS011;50211;52.768;12.124;2023-02-04T13:15:15;2.58;;;1.13;;
64011;SDS011;50211;52.768;12.124;2023-02-04T13:17:40;2.58;;;1.42;;
64011;SDS011;50211;52.768;12.124;2023-02-04T13:20:06;2.67;;;2.10;;
64011;SDS011;50211;52.768;12.124;2023-02-04T13:22:33;5.95;;;3.22;;
64011;SDS011;50211;52.768;12.124;2023-02-04T13:24:59;6.05;;;3.20;;
64011;SDS011;50211;52.768;12.124;2023-02-04T13:27:24;2.88;;;2.58;;
64011;SDS011;50211;52.768;12.124;2023-02-04T13:29:51;2.55;;;0.85;;
64011;SDS011;50211;52.768;12.124;2023-02-04T13:32:17;3.05;;;1.77;;
64011;SDS011;50211;52.768;12.124;2023-02-04T13:34:42;1.48;;;1.38;;
64011;SDS011;50211;52.768;12.124;2023-02-04T13:37:08;2.70;;;1.40;;
64011;SDS011;50211;52.768;12.124;2023-02-04T13:39:33;1.87;;;1.77;;
64011;SDS011;50211;52.768;12.124;2023-02-04T13:41:59;2.20;;;1.63;;
64011;SDS011;50211;52.768;12.124;2023-02-04T13:44:24;2.20;;;2.00;;
64011;SDS011;50211;52.768;12.124;2023-02-04T13:46:50;2.63;;;1.93;;
64011;SDS011;50211;52.768;12.124;2023-02-04T13:49:16;2.33;;;0.77;;
64011;SDS011;50211;52.768;12.124;2023-02-04T13:51:41;1.90;;;1.03;;
64011;SDS011;50211;52.768;12.124;2023-02-04T13:54:06;3.70;;;2.73;;
64011;SDS011;50211;52.768;12.124;2023-02-04T13:56:32;0.83;;;0.83;;
64011;SDS011;50211;52.768;12.124;2023-02-04T13:58:58;1.30;;;0.90;;
64011;SDS011;50211;52.768;12.124;2023-02-04T14:01:23;0.57;;;0.57;;
64011;SDS011;50211;52.768;12.124;2023-02-04T14:03:48;0.77;;;0.60;;
64011;SDS011;50211;52.768;12.124;2023-02-04T14:06:14;0.80;;;0.50;;
64011;SDS011;50211;52.768;12.124;2023-02-04T14:08:39;2.35;;;1.00;;
64011;SDS011;50211;52.768;12.124;2023-02-04T14:11:05;0.73;;;0.70;;
64011;SDS011;50211;52.768;12.124;2023-02-04T14:13:31;2.38;;;0.73;;
64011;SDS011;50211;52.768;12.124;2023-02-04T14:15:57;5.75;;;0.90;;
64011;SDS011;50211;52.768;12.124;2023-02-04T14:18:22;1.30;;;0.70;;
64011;SDS011;50211;52.768;12.124;2023-02-04T14:20:48;1.33;;;0.60;;
64011;SDS011;50211;52.768;12.124;2023-02-04T14:23:13;7.18;;;4.13;;
64011;SDS011;50211;52.768;12.124;2023-02-04T14:25:39;14.82;;;7.15;;
64011;SDS011;50211;52.768;12.124;2023-02-04T14:28:05;6.25;;;2.60;;
64011;SDS011;50211;52.768;12.124;2023-02-04T14:30:33;2.07;;;1.50;;
64011;SDS011;50211;52.768;12.124;2023-02-04T14:32:58;2.57;;;1.00;;
64011;SDS011;50211;52.768;12.124;2023-02-04T14:35:25;2.37;;;1.73;;
64011;SDS011;50211;52.768;12.124;2023-02-04T14:37:51;1.50;;;1.40;;
64011;SDS011;50211;52.768;12.124;2023-02-04T14:40:17;3.87;;;0.93;;
64011;SDS011;50211;52.768;12.124;2023-02-04T14:42:44;1.20;;;1.07;;
64011;SDS011;50211;52.768;12.124;2023-02-04T14:45:10;3.17;;;1.93;;
64011;SDS011;50211;52.768;12.124;2023-02-04T14:47:37;11.07;;;3.97;;
64011;SDS011;50211;52.768;12.124;2023-02-04T14:50:08;9.70;;;5.80;;